sensor_id;sensor_type;location;lat;lon;timestamp;temperature;humidity
3954;DHT22;1991;48.682;9.030;2023-12-07T00:01:33;1.50;99.90
3954;DHT22;1991;48.682;9.030;2023-12-07T00:04:02;1.50;99.90
3954;DHT22;1991;48.682;9.030;2023-12-07T00:06:28;1.50;99.90
3954;DHT22;1991;48.682;9.030;2023-12-07T00:08:54;1.50;99.90
3954;DHT22;1991;48.682;9.030;2023-12-07T00:11:22;1.50;99.90
3954;DHT22;1991;48.682;9.030;2023-12-07T00:13:51;1.50;99.90
3954;DHT22;1991;48.682;9.030;2023-12-07T00:16:16;1.50;99.90
3954;DHT22;1991;48.682;9.030;2023-12-07T00:18:42;1.50;99.90
3954;DHT22;1991;48.682;9.030;2023-12-07T00:21:08;1.60;99.90
3954;DHT22;1991;48.682;9.030;2023-12-07T00:23:34;1.50;99.90
3954;DHT22;1991;48.682;9.030;2023-12-07T00:26:00;1.50;99.90
3954;DHT22;1991;48.682;9.030;2023-12-07T00:28:25;1.60;99.90
3954;DHT22;1991;48.682;9.030;2023-12-07T00:30:51;1.50;99.90
3954;DHT22;1991;48.682;9.030;2023-12-07T00:33:17;1.60;99.90
3954;DHT22;1991;48.682;9.030;2023-12-07T00:35:43;1.60;99.90
3954;DHT22;1991;48.682;9.030;2023-12-07T00:38:08;1.50;99.90
3954;DHT22;1991;48.682;9.030;2023-12-07T00:40:34;1.50;99.90
3954;DHT22;1991;48.682;9.030;2023-12-07T00:43:02;1.60;99.90
3954;DHT22;1991;48.682;9.030;2023-12-07T00:45:28;1.60;99.90
3954;DHT22;1991;48.682;9.030;2023-12-07T00:47:54;1.50;99.90
3954;DHT22;1991;48.682;9.030;2023-12-07T00:50:19;1.50;99.90
3954;DHT22;1991;48.682;9.030;2023-12-07T00:52:45;1.60;99.90
3954;DHT22;1991;48.682;9.030;2023-12-07T00:55:11;1.60;99.90
3954;DHT22;1991;48.682;9.030;2023-12-07T00:57:36;1.60;99.90
3954;DHT22;1991;48.682;9.030;2023-12-07T01:00:02;1.60;99.90
3954;DHT22;1991;48.682;9.030;2023-12-07T01:02:29;1.60;99.90
3954;DHT22;1991;48.682;9.030;2023-12-07T01:04:54;1.60;99.90
3954;DHT22;1991;48.682;9.030;2023-12-07T01:07:20;1.60;99.90
3954;DHT22;1991;48.682;9.030;2023-12-07T01:09:46;1.60;99.90
3954;DHT22;1991;48.682;9.030;2023-12-07T01:12:12;1.60;99.90
3954;DHT22;1991;48.682;9.030;2023-12-07T01:14:37;1.60;99.90
3954;DHT22;1991;48.682;9.030;2023-12-07T01:17:03;1.50;99.90
3954;DHT22;1991;48.682;9.030;2023-12-07T01:19:29;1.50;99.90
3954;DHT22;1991;48.682;9.030;2023-12-07T01:21:55;1.50;99.90
3954;DHT22;1991;48.682;9.030;2023-12-07T01:24:20;1.50;99.90
3954;DHT22;1991;48.682;9.030;2023-12-07T01:26:46;1.50;99.90
3954;DHT22;1991;48.682;9.030;2023-12-07T01:29:11;1.50;99.90
3954;DHT22;1991;48.682;9.030;2023-12-07T01:31:39;1.50;99.90
3954;DHT22;1991;48.682;9.030;2023-12-07T01:34:05;1.40;99.90
3954;DHT22;1991;48.682;9.030;2023-12-07T01:36:30;1.30;99.90
3954;DHT22;1991;48.682;9.030;2023-12-07T01:38:56;1.20;99.90
3954;DHT22;1991;48.682;9.030;2023-12-07T01:41:21;1.20;99.90
3954;DHT22;1991;48.682;9.030;2023-12-07T01:43:47;1.10;99.90
3954;DHT22;1991;48.682;9.030;2023-12-07T01:46:16;1.10;99.90
3954;DHT22;1991;48.682;9.030;2023-12-07T01:48:42;1.10;99.90
3954;DHT22;1991;48.682;9.030;2023-12-07T01:51:09;1.00;99.90
3954;DHT22;1991;48.682;9.030;2023-12-07T01:53:39;0.90;99.90
3954;DHT22;1991;48.682;9.030;2023-12-07T01:56:05;0.90;99.90
3954;DHT22;1991;48.682;9.030;2023-12-07T01:58:31;0.90;99.90
3954;DHT22;1991;48.682;9.030;2023-12-07T02:00:56;0.80;99.90
3954;DHT22;1991;48.682;9.030;2023-12-07T02:03:23;0.80;99.90
3954;DHT22;1991;48.682;9.030;2023-12-07T02:05:49;0.80;99.90
3954;DHT22;1991;48.682;9.030;2023-12-07T02:08:16;0.70;99.90
3954;DHT22;1991;48.682;9.030;2023-12-07T02:10:42;0.70;99.90
3954;DHT22;1991;48.682;9.030;2023-12-07T02:13:07;0.70;99.90
3954;DHT22;1991;48.682;9.030;2023-12-07T02:15:34;0.70;99.90
3954;DHT22;1991;48.682;9.030;2023-12-07T02:20:53;0.80;99.90
3954;DHT22;1991;48.682;9.030;2023-12-07T02:23:21;0.80;99.90
3954;DHT22;1991;48.682;9.030;2023-12-07T02:25:51;0.90;99.90
3954;DHT22;1991;48.682;9.030;2023-12-07T02:28:17;0.90;99.90
3954;DHT22;1991;48.682;9.030;2023-12-07T02:30:43;0.90;99.90
3954;DHT22;1991;48.682;9.030;2023-12-07T02:33:09;0.90;99.90
3954;DHT22;1991;48.682;9.030;2023-12-07T02:35:36;0.90;99.90
3954;DHT22;1991;48.682;9.030;2023-12-07T02:38:03;0.90;99.90
3954;DHT22;1991;48.682;9.030;2023-12-07T02:40:29;0.80;99.90
3954;DHT22;1991;48.682;9.030;2023-12-07T02:42:56;0.80;99.90
3954;DHT22;1991;48.682;9.030;2023-12-07T02:45:22;0.80;99.90
3954;DHT22;1991;48.682;9.030;2023-12-07T02:47:48;0.80;99.90
3954;DHT22;1991;48.682;9.030;2023-12-07T02:50:14;0.80;99.90
3954;DHT22;1991;48.682;9.030;2023-12-07T02:52:40;0.80;99.90
3954;DHT22;1991;48.682;9.030;2023-12-07T02:55:06;0.80;99.90
3954;DHT22;1991;48.682;9.030;2023-12-07T02:57:32;0.80;99.90
3954;DHT22;1991;48.682;9.030;2023-12-07T03:00:04;0.70;99.90
3954;DHT22;1991;48.682;9.030;2023-12-07T03:02:40;0.70;99.90
3954;DHT22;1991;48.682;9.030;2023-12-07T03:05:06;0.70;99.90
3954;DHT22;1991;48.682;9.030;2023-12-07T03:07:33;0.70;99.90
3954;DHT22;1991;48.682;9.030;2023-12-07T03:09:59;0.70;99.90
3954;DHT22;1991;48.682;9.030;2023-12-07T03:12:24;0.70;99.90
3954;DHT22;1991;48.682;9.030;2023-12-07T03:14:50;0.70;99.90
3954;DHT22;1991;48.682;9.030;2023-12-07T03:17:15;0.70;99.90
3954;DHT22;1991;48.682;9.030;2023-12-07T03:19:41;0.70;99.90
3954;DHT22;1991;48.682;9.030;2023-12-07T03:22:07;0.70;99.90
3954;DHT22;1991;48.682;9.030;2023-12-07T03:24:35;0.70;99.90
3954;DHT22;1991;48.682;9.030;2023-12-07T03:27:00;0.60;99.90
3954;DHT22;1991;48.682;9.030;2023-12-07T03:29:26;0.60;99.90
3954;DHT22;1991;48.682;9.030;2023-12-07T03:31:51;0.60;99.90
3954;DHT22;1991;48.682;9.030;2023-12-07T03:34:17;0.50;99.90
3954;DHT22;1991;48.682;9.030;2023-12-07T03:36:46;0.40;99.90
3954;DHT22;1991;48.682;9.030;2023-12-07T03:39:13;0.30;99.90
3954;DHT22;1991;48.682;9.030;2023-12-07T03:41:38;0.30;99.90
3954;DHT22;1991;48.682;9.030;2023-12-07T03:44:04;0.20;99.90
3954;DHT22;1991;48.682;9.030;2023-12-07T03:46:30;0.20;99.90
3954;DHT22;1991;48.682;9.030;2023-12-07T03:48:55;0.10;99.90
3954;DHT22;1991;48.682;9.030;2023-12-07T03:51:21;0.00;99.90
3954;DHT22;1991;48.682;9.030;2023-12-07T03:53:47;-0.10;99.90
3954;DHT22;1991;48.682;9.030;2023-12-07T03:56:29;-0.20;99.90
3954;DHT22;1991;48.682;9.030;2023-12-07T03:58:55;-0.30;99.90
3954;DHT22;1991;48.682;9.030;2023-12-07T04:01:24;-0.40;99.90
3954;DHT22;1991;48.682;9.030;2023-12-07T04:03:54;-0.40;99.90
3954;DHT22;1991;48.682;9.030;2023-12-07T04:06:20;-0.50;99.90
3954;DHT22;1991;48.682;9.030;2023-12-07T04:08:46;-0.60;99.90
3954;DHT22;1991;48.682;9.030;2023-12-07T04:11:12;-0.60;99.90
3954;DHT22;1991;48.682;9.030;2023-12-07T04:13:38;-0.70;99.90
3954;DHT22;1991;48.682;9.030;2023-12-07T04:16:04;-0.80;99.90
3954;DHT22;1991;48.682;9.030;2023-12-07T04:18:29;-0.90;99.90
3954;DHT22;1991;48.682;9.030;2023-12-07T04:20:55;-0.90;99.90
3954;DHT22;1991;48.682;9.030;2023-12-07T04:23:21;-1.00;99.90
3954;DHT22;1991;48.682;9.030;2023-12-07T04:25:46;-1.10;99.90
3954;DHT22;1991;48.682;9.030;2023-12-07T04:28:12;-1.10;99.90
3954;DHT22;1991;48.682;9.030;2023-12-07T04:30:38;-1.20;99.90
3954;DHT22;1991;48.682;9.030;2023-12-07T04:33:03;-1.30;99.90
3954;DHT22;1991;48.682;9.030;2023-12-07T04:35:30;-1.30;99.90
3954;DHT22;1991;48.682;9.030;2023-12-07T04:37:56;-1.40;99.90
3954;DHT22;1991;48.682;9.030;2023-12-07T04:40:21;-1.40;99.90
3954;DHT22;1991;48.682;9.030;2023-12-07T04:42:47;-1.40;99.90
3954;DHT22;1991;48.682;9.030;2023-12-07T04:45:13;-1.40;99.90
3954;DHT22;1991;48.682;9.030;2023-12-07T04:47:38;-1.50;99.90
3954;DHT22;1991;48.682;9.030;2023-12-07T04:50:04;-1.50;99.90
3954;DHT22;1991;48.682;9.030;2023-12-07T04:52:30;-1.60;99.90
3954;DHT22;1991;48.682;9.030;2023-12-07T04:54:56;-1.60;99.90
3954;DHT22;1991;48.682;9.030;2023-12-07T04:57:21;-1.60;99.90
3954;DHT22;1991;48.682;9.030;2023-12-07T04:59:47;-1.60;99.90
3954;DHT22;1991;48.682;9.030;2023-12-07T05:02:16;-1.60;99.90
3954;DHT22;1991;48.682;9.030;2023-12-07T05:04:42;-1.70;99.90
3954;DHT22;1991;48.682;9.030;2023-12-07T05:07:08;-1.70;99.90
3954;DHT22;1991;48.682;9.030;2023-12-07T05:09:33;-1.70;99.90
3954;DHT22;1991;48.682;9.030;2023-12-07T05:11:59;-1.80;99.90
3954;DHT22;1991;48.682;9.030;2023-12-07T05:14:25;-1.80;99.90
3954;DHT22;1991;48.682;9.030;2023-12-07T05:16:50;-1.80;99.90
3954;DHT22;1991;48.682;9.030;2023-12-07T05:19:24;-1.80;99.90
3954;DHT22;1991;48.682;9.030;2023-12-07T05:21:50;-1.90;99.90
3954;DHT22;1991;48.682;9.030;2023-12-07T05:24:15;-1.90;99.90
3954;DHT22;1991;48.682;9.030;2023-12-07T05:26:42;-1.90;99.90
3954;DHT22;1991;48.682;9.030;2023-12-07T05:29:08;-1.90;99.90
3954;DHT22;1991;48.682;9.030;2023-12-07T05:31:33;-1.90;99.90
3954;DHT22;1991;48.682;9.030;2023-12-07T05:34:00;-2.00;99.90
3954;DHT22;1991;48.682;9.030;2023-12-07T05:36:26;-1.90;99.90
3954;DHT22;1991;48.682;9.030;2023-12-07T05:38:52;-2.00;99.90
3954;DHT22;1991;48.682;9.030;2023-12-07T05:41:17;-2.00;99.90
3954;DHT22;1991;48.682;9.030;2023-12-07T05:43:43;-2.00;99.90
3954;DHT22;1991;48.682;9.030;2023-12-07T05:46:08;-2.00;99.90
3954;DHT22;1991;48.682;9.030;2023-12-07T05:48:34;-2.00;99.90
3954;DHT22;1991;48.682;9.030;2023-12-07T05:51:01;-2.00;99.90
3954;DHT22;1991;48.682;9.030;2023-12-07T05:53:27;-2.00;99.90
3954;DHT22;1991;48.682;9.030;2023-12-07T05:55:53;-2.10;99.90
3954;DHT22;1991;48.682;9.030;2023-12-07T05:58:19;-2.10;99.90
3954;DHT22;1991;48.682;9.030;2023-12-07T06:00:45;-2.10;99.90
3954;DHT22;1991;48.682;9.030;2023-12-07T06:03:12;-2.10;99.90
3954;DHT22;1991;48.682;9.030;2023-12-07T06:05:38;-2.10;99.90
3954;DHT22;1991;48.682;9.030;2023-12-07T06:08:04;-2.20;99.90
3954;DHT22;1991;48.682;9.030;2023-12-07T06:10:30;-2.20;99.90
3954;DHT22;1991;48.682;9.030;2023-12-07T06:12:56;-2.20;99.90
3954;DHT22;1991;48.682;9.030;2023-12-07T06:15:24;-2.20;99.90
3954;DHT22;1991;48.682;9.030;2023-12-07T06:17:49;-2.20;99.90
3954;DHT22;1991;48.682;9.030;2023-12-07T06:20:15;-2.20;99.90
3954;DHT22;1991;48.682;9.030;2023-12-07T06:22:41;-2.20;99.90
3954;DHT22;1991;48.682;9.030;2023-12-07T06:25:06;-2.20;99.90
3954;DHT22;1991;48.682;9.030;2023-12-07T06:27:34;-2.30;99.90
3954;DHT22;1991;48.682;9.030;2023-12-07T06:30:00;-2.20;99.90
3954;DHT22;1991;48.682;9.030;2023-12-07T06:32:26;-2.30;99.90
3954;DHT22;1991;48.682;9.030;2023-12-07T06:34:51;-2.30;99.90
3954;DHT22;1991;48.682;9.030;2023-12-07T06:37:17;-2.30;99.90
3954;DHT22;1991;48.682;9.030;2023-12-07T06:39:43;-2.30;99.90
3954;DHT22;1991;48.682;9.030;2023-12-07T06:42:08;-2.30;99.90
3954;DHT22;1991;48.682;9.030;2023-12-07T06:44:34;-2.30;99.90
3954;DHT22;1991;48.682;9.030;2023-12-07T06:47:00;-2.30;99.90
3954;DHT22;1991;48.682;9.030;2023-12-07T06:49:28;-2.30;99.90
3954;DHT22;1991;48.682;9.030;2023-12-07T06:51:54;-2.30;99.90
3954;DHT22;1991;48.682;9.030;2023-12-07T06:54:19;-2.30;99.90
3954;DHT22;1991;48.682;9.030;2023-12-07T06:56:45;-2.40;99.90
3954;DHT22;1991;48.682;9.030;2023-12-07T06:59:11;-2.40;99.90
3954;DHT22;1991;48.682;9.030;2023-12-07T07:01:37;-2.30;99.90
3954;DHT22;1991;48.682;9.030;2023-12-07T07:04:03;-2.40;99.90
3954;DHT22;1991;48.682;9.030;2023-12-07T07:06:29;-2.40;99.90
3954;DHT22;1991;48.682;9.030;2023-12-07T07:08:54;-2.30;99.90
3954;DHT22;1991;48.682;9.030;2023-12-07T07:11:20;-2.30;99.90
3954;DHT22;1991;48.682;9.030;2023-12-07T07:13:45;-2.30;99.90
3954;DHT22;1991;48.682;9.030;2023-12-07T07:16:11;-2.40;99.90
3954;DHT22;1991;48.682;9.030;2023-12-07T07:18:40;-2.30;99.90
3954;DHT22;1991;48.682;9.030;2023-12-07T07:21:06;-2.30;99.90
3954;DHT22;1991;48.682;9.030;2023-12-07T07:23:33;-2.30;99.90
3954;DHT22;1991;48.682;9.030;2023-12-07T07:25:58;-2.20;99.90
3954;DHT22;1991;48.682;9.030;2023-12-07T07:28:24;-2.20;99.90
3954;DHT22;1991;48.682;9.030;2023-12-07T07:30:50;-2.20;99.90
3954;DHT22;1991;48.682;9.030;2023-12-07T07:33:16;-2.20;99.90
3954;DHT22;1991;48.682;9.030;2023-12-07T07:35:42;-2.20;99.90
3954;DHT22;1991;48.682;9.030;2023-12-07T07:38:08;-2.10;99.90
3954;DHT22;1991;48.682;9.030;2023-12-07T07:40:33;-2.00;99.90
3954;DHT22;1991;48.682;9.030;2023-12-07T07:42:59;-2.00;99.90
3954;DHT22;1991;48.682;9.030;2023-12-07T07:45:24;-1.90;99.90
3954;DHT22;1991;48.682;9.030;2023-12-07T07:47:50;-1.80;99.90
3954;DHT22;1991;48.682;9.030;2023-12-07T07:50:15;-1.70;99.90
3954;DHT22;1991;48.682;9.030;2023-12-07T07:52:42;-1.60;99.90
3954;DHT22;1991;48.682;9.030;2023-12-07T07:55:09;-1.60;99.90
3954;DHT22;1991;48.682;9.030;2023-12-07T07:57:35;-1.40;99.90
3954;DHT22;1991;48.682;9.030;2023-12-07T08:00:04;-0.90;99.90
3954;DHT22;1991;48.682;9.030;2023-12-07T08:02:31;1.30;99.90
3954;DHT22;1991;48.682;9.030;2023-12-07T08:04:56;3.10;99.90
3954;DHT22;1991;48.682;9.030;2023-12-07T08:07:22;4.10;99.90
3954;DHT22;1991;48.682;9.030;2023-12-07T08:09:47;5.60;99.90
3954;DHT22;1991;48.682;9.030;2023-12-07T08:12:13;7.10;99.90
3954;DHT22;1991;48.682;9.030;2023-12-07T08:14:39;8.50;99.90
3954;DHT22;1991;48.682;9.030;2023-12-07T08:17:05;9.50;98.50
3954;DHT22;1991;48.682;9.030;2023-12-07T08:19:31;10.70;93.40
3954;DHT22;1991;48.682;9.030;2023-12-07T08:21:56;11.30;86.20
3954;DHT22;1991;48.682;9.030;2023-12-07T08:24:22;11.80;81.70
3954;DHT22;1991;48.682;9.030;2023-12-07T08:26:48;12.80;78.30
3954;DHT22;1991;48.682;9.030;2023-12-07T08:29:16;14.00;72.50
3954;DHT22;1991;48.682;9.030;2023-12-07T08:31:46;14.40;69.90
3954;DHT22;1991;48.682;9.030;2023-12-07T08:34:14;15.60;64.40
3954;DHT22;1991;48.682;9.030;2023-12-07T08:36:40;14.50;62.10
3954;DHT22;1991;48.682;9.030;2023-12-07T08:39:05;15.00;62.10
3954;DHT22;1991;48.682;9.030;2023-12-07T08:41:35;16.20;60.60
3954;DHT22;1991;48.682;9.030;2023-12-07T08:44:01;16.40;58.40
3954;DHT22;1991;48.682;9.030;2023-12-07T08:46:27;17.70;56.80
3954;DHT22;1991;48.682;9.030;2023-12-07T08:48:52;19.00;53.50
3954;DHT22;1991;48.682;9.030;2023-12-07T08:51:19;20.20;50.90
3954;DHT22;1991;48.682;9.030;2023-12-07T08:56:20;22.40;46.80
3954;DHT22;1991;48.682;9.030;2023-12-07T08:58:45;23.60;44.40
3954;DHT22;1991;48.682;9.030;2023-12-07T09:01:11;24.60;43.10
3954;DHT22;1991;48.682;9.030;2023-12-07T09:03:37;25.20;41.60
3954;DHT22;1991;48.682;9.030;2023-12-07T09:06:03;24.80;40.10
3954;DHT22;1991;48.682;9.030;2023-12-07T09:08:29;25.70;39.90
3954;DHT22;1991;48.682;9.030;2023-12-07T09:10:54;26.00;38.60
3954;DHT22;1991;48.682;9.030;2023-12-07T09:13:20;26.30;37.40
3954;DHT22;1991;48.682;9.030;2023-12-07T09:15:45;25.10;38.10
3954;DHT22;1991;48.682;9.030;2023-12-07T09:18:11;26.10;38.60
3954;DHT22;1991;48.682;9.030;2023-12-07T09:20:37;27.60;37.50
3954;DHT22;1991;48.682;9.030;2023-12-07T09:23:13;28.80;35.70
3954;DHT22;1991;48.682;9.030;2023-12-07T09:25:40;29.80;35.50
3954;DHT22;1991;48.682;9.030;2023-12-07T09:28:06;29.00;34.20
3954;DHT22;1991;48.682;9.030;2023-12-07T09:30:32;27.50;34.20
3954;DHT22;1991;48.682;9.030;2023-12-07T09:32:59;27.40;34.30
3954;DHT22;1991;48.682;9.030;2023-12-07T09:35:25;28.90;32.80
3954;DHT22;1991;48.682;9.030;2023-12-07T09:37:50;30.00;32.60
3954;DHT22;1991;48.682;9.030;2023-12-07T09:40:17;28.60;32.00
3954;DHT22;1991;48.682;9.030;2023-12-07T09:42:44;27.80;31.30
3954;DHT22;1991;48.682;9.030;2023-12-07T09:45:10;29.70;31.40
3954;DHT22;1991;48.682;9.030;2023-12-07T09:47:37;30.00;29.80
3954;DHT22;1991;48.682;9.030;2023-12-07T09:50:05;29.50;29.40
3954;DHT22;1991;48.682;9.030;2023-12-07T09:52:31;29.60;29.30
3954;DHT22;1991;48.682;9.030;2023-12-07T09:54:57;29.00;29.80
3954;DHT22;1991;48.682;9.030;2023-12-07T09:57:22;30.50;30.20
3954;DHT22;1991;48.682;9.030;2023-12-07T09:59:48;31.70;29.50
3954;DHT22;1991;48.682;9.030;2023-12-07T10:02:14;31.80;29.10
3954;DHT22;1991;48.682;9.030;2023-12-07T10:04:39;32.00;28.90
3954;DHT22;1991;48.682;9.030;2023-12-07T10:07:05;30.70;28.50
3954;DHT22;1991;48.682;9.030;2023-12-07T10:09:38;30.70;28.70
3954;DHT22;1991;48.682;9.030;2023-12-07T10:12:05;30.10;28.70
3954;DHT22;1991;48.682;9.030;2023-12-07T10:14:31;31.60;28.60
3954;DHT22;1991;48.682;9.030;2023-12-07T10:16:57;33.30;28.10
3954;DHT22;1991;48.682;9.030;2023-12-07T10:19:24;32.60;27.80
3954;DHT22;1991;48.682;9.030;2023-12-07T10:21:51;32.10;28.10
3954;DHT22;1991;48.682;9.030;2023-12-07T10:24:21;32.80;28.40
3954;DHT22;1991;48.682;9.030;2023-12-07T10:26:48;34.50;28.00
3954;DHT22;1991;48.682;9.030;2023-12-07T10:29:14;32.60;28.40
3954;DHT22;1991;48.682;9.030;2023-12-07T10:31:42;30.90;28.40
3954;DHT22;1991;48.682;9.030;2023-12-07T10:34:09;29.50;28.30
3954;DHT22;1991;48.682;9.030;2023-12-07T10:36:34;29.80;29.10
3954;DHT22;1991;48.682;9.030;2023-12-07T10:39:00;29.80;29.60
3954;DHT22;1991;48.682;9.030;2023-12-07T10:41:26;29.00;29.40
3954;DHT22;1991;48.682;9.030;2023-12-07T10:43:54;29.00;29.70
3954;DHT22;1991;48.682;9.030;2023-12-07T10:46:21;28.20;29.90
3954;DHT22;1991;48.682;9.030;2023-12-07T10:48:54;29.40;29.60
3954;DHT22;1991;48.682;9.030;2023-12-07T10:51:47;29.60;30.00
3954;DHT22;1991;48.682;9.030;2023-12-07T10:54:16;30.60;29.50
3954;DHT22;1991;48.682;9.030;2023-12-07T10:56:45;31.50;29.30
3954;DHT22;1991;48.682;9.030;2023-12-07T10:59:12;32.90;28.60
3954;DHT22;1991;48.682;9.030;2023-12-07T11:01:42;32.70;28.30
3954;DHT22;1991;48.682;9.030;2023-12-07T11:04:13;32.40;28.10
3954;DHT22;1991;48.682;9.030;2023-12-07T11:06:46;33.30;28.30
3954;DHT22;1991;48.682;9.030;2023-12-07T11:09:18;34.30;27.90
3954;DHT22;1991;48.682;9.030;2023-12-07T11:12:06;34.30;27.50
3954;DHT22;1991;48.682;9.030;2023-12-07T11:14:36;34.20;27.30
3954;DHT22;1991;48.682;9.030;2023-12-07T11:17:03;34.60;27.40
3954;DHT22;1991;48.682;9.030;2023-12-07T11:21:56;34.70;27.30
3954;DHT22;1991;48.682;9.030;2023-12-07T11:24:23;35.20;26.70
3954;DHT22;1991;48.682;9.030;2023-12-07T11:26:53;33.40;27.30
3954;DHT22;1991;48.682;9.030;2023-12-07T11:29:23;32.90;27.40
3954;DHT22;1991;48.682;9.030;2023-12-07T11:31:50;31.60;27.70
3954;DHT22;1991;48.682;9.030;2023-12-07T11:34:42;31.90;28.20
3954;DHT22;1991;48.682;9.030;2023-12-07T11:37:09;33.20;27.60
3954;DHT22;1991;48.682;9.030;2023-12-07T11:39:41;33.20;27.20
3954;DHT22;1991;48.682;9.030;2023-12-07T11:42:11;30.50;27.30
3954;DHT22;1991;48.682;9.030;2023-12-07T11:44:38;31.30;27.90
3954;DHT22;1991;48.682;9.030;2023-12-07T11:47:05;30.00;28.50
3954;DHT22;1991;48.682;9.030;2023-12-07T11:49:31;31.60;28.10
3954;DHT22;1991;48.682;9.030;2023-12-07T11:52:00;32.60;27.30
3954;DHT22;1991;48.682;9.030;2023-12-07T11:54:26;31.80;27.20
3954;DHT22;1991;48.682;9.030;2023-12-07T11:56:55;31.60;27.90
3954;DHT22;1991;48.682;9.030;2023-12-07T11:59:22;31.30;27.50
3954;DHT22;1991;48.682;9.030;2023-12-07T12:01:48;30.40;27.80
3954;DHT22;1991;48.682;9.030;2023-12-07T12:04:17;28.80;28.20
3954;DHT22;1991;48.682;9.030;2023-12-07T12:06:44;26.70;29.10
3954;DHT22;1991;48.682;9.030;2023-12-07T12:09:14;26.40;29.20
3954;DHT22;1991;48.682;9.030;2023-12-07T12:11:46;23.90;30.30
3954;DHT22;1991;48.682;9.030;2023-12-07T12:14:14;23.80;31.10
3954;DHT22;1991;48.682;9.030;2023-12-07T12:16:40;25.10;30.00
3954;DHT22;1991;48.682;9.030;2023-12-07T12:19:06;26.10;29.30
3954;DHT22;1991;48.682;9.030;2023-12-07T12:21:36;28.10;28.90
3954;DHT22;1991;48.682;9.030;2023-12-07T12:24:05;28.10;28.20
3954;DHT22;1991;48.682;9.030;2023-12-07T12:26:33;28.50;27.80
3954;DHT22;1991;48.682;9.030;2023-12-07T12:28:59;29.50;27.80
3954;DHT22;1991;48.682;9.030;2023-12-07T12:31:25;29.40;27.60
3954;DHT22;1991;48.682;9.030;2023-12-07T12:33:51;30.30;27.50
3954;DHT22;1991;48.682;9.030;2023-12-07T12:36:19;28.70;27.10
3954;DHT22;1991;48.682;9.030;2023-12-07T12:38:49;25.60;28.20
3954;DHT22;1991;48.682;9.030;2023-12-07T12:41:19;23.00;29.70
3954;DHT22;1991;48.682;9.030;2023-12-07T12:43:45;23.00;31.10
3954;DHT22;1991;48.682;9.030;2023-12-07T12:46:13;24.30;30.40
3954;DHT22;1991;48.682;9.030;2023-12-07T12:48:59;25.10;29.80
3954;DHT22;1991;48.682;9.030;2023-12-07T12:51:26;26.20;29.40
3954;DHT22;1991;48.682;9.030;2023-12-07T12:53:53;27.80;28.90
3954;DHT22;1991;48.682;9.030;2023-12-07T12:56:19;28.50;28.50
3954;DHT22;1991;48.682;9.030;2023-12-07T12:58:47;29.00;27.90
3954;DHT22;1991;48.682;9.030;2023-12-07T13:01:13;29.00;28.70
3954;DHT22;1991;48.682;9.030;2023-12-07T13:03:38;29.70;28.20
3954;DHT22;1991;48.682;9.030;2023-12-07T13:06:04;29.00;28.10
3954;DHT22;1991;48.682;9.030;2023-12-07T13:08:30;27.80;28.00
3954;DHT22;1991;48.682;9.030;2023-12-07T13:10:58;27.20;28.70
3954;DHT22;1991;48.682;9.030;2023-12-07T13:13:24;26.70;28.80
3954;DHT22;1991;48.682;9.030;2023-12-07T13:15:50;26.30;29.00
3954;DHT22;1991;48.682;9.030;2023-12-07T13:18:16;25.50;28.80
3954;DHT22;1991;48.682;9.030;2023-12-07T13:20:41;25.50;29.50
3954;DHT22;1991;48.682;9.030;2023-12-07T13:23:07;25.50;29.30
3954;DHT22;1991;48.682;9.030;2023-12-07T13:25:32;25.30;29.60
3954;DHT22;1991;48.682;9.030;2023-12-07T13:27:58;24.70;29.60
3954;DHT22;1991;48.682;9.030;2023-12-07T13:30:23;24.20;29.60
3954;DHT22;1991;48.682;9.030;2023-12-07T13:32:50;24.00;29.90
3954;DHT22;1991;48.682;9.030;2023-12-07T13:35:16;23.70;30.00
3954;DHT22;1991;48.682;9.030;2023-12-07T13:37:41;22.40;30.80
3954;DHT22;1991;48.682;9.030;2023-12-07T13:40:07;21.80;31.40
3954;DHT22;1991;48.682;9.030;2023-12-07T13:42:36;20.10;32.50
3954;DHT22;1991;48.682;9.030;2023-12-07T13:45:02;19.00;33.80
3954;DHT22;1991;48.682;9.030;2023-12-07T13:47:28;18.60;34.30
3954;DHT22;1991;48.682;9.030;2023-12-07T13:49:57;18.50;35.00
3954;DHT22;1991;48.682;9.030;2023-12-07T13:52:23;19.00;34.70
3954;DHT22;1991;48.682;9.030;2023-12-07T13:54:49;20.20;34.00
3954;DHT22;1991;48.682;9.030;2023-12-07T13:57:15;20.90;32.70
3954;DHT22;1991;48.682;9.030;2023-12-07T13:59:41;21.70;32.00
3954;DHT22;1991;48.682;9.030;2023-12-07T14:02:07;22.50;31.30
3954;DHT22;1991;48.682;9.030;2023-12-07T14:04:35;23.30;30.20
3954;DHT22;1991;48.682;9.030;2023-12-07T14:07:21;23.80;29.80
3954;DHT22;1991;48.682;9.030;2023-12-07T14:09:48;22.40;30.30
3954;DHT22;1991;48.682;9.030;2023-12-07T14:12:15;20.80;31.40
3954;DHT22;1991;48.682;9.030;2023-12-07T14:14:46;18.80;33.10
3954;DHT22;1991;48.682;9.030;2023-12-07T14:17:16;16.90;35.10
3954;DHT22;1991;48.682;9.030;2023-12-07T14:19:42;15.40;37.60
3954;DHT22;1991;48.682;9.030;2023-12-07T14:22:08;14.00;40.00
3954;DHT22;1991;48.682;9.030;2023-12-07T14:24:35;13.00;41.40
3954;DHT22;1991;48.682;9.030;2023-12-07T14:27:02;12.10;42.80
3954;DHT22;1991;48.682;9.030;2023-12-07T14:29:29;11.20;44.30
3954;DHT22;1991;48.682;9.030;2023-12-07T14:31:55;10.50;45.80
3954;DHT22;1991;48.682;9.030;2023-12-07T14:34:21;9.90;46.90
3954;DHT22;1991;48.682;9.030;2023-12-07T14:36:47;9.40;48.40
3954;DHT22;1991;48.682;9.030;2023-12-07T14:39:13;8.90;49.30
3954;DHT22;1991;48.682;9.030;2023-12-07T14:41:49;8.50;50.90
3954;DHT22;1991;48.682;9.030;2023-12-07T14:44:17;8.20;51.70
3954;DHT22;1991;48.682;9.030;2023-12-07T14:46:46;8.00;52.50
3954;DHT22;1991;48.682;9.030;2023-12-07T14:49:13;7.70;53.50
3954;DHT22;1991;48.682;9.030;2023-12-07T14:51:39;7.50;54.10
3954;DHT22;1991;48.682;9.030;2023-12-07T14:54:05;7.30;54.80
3954;DHT22;1991;48.682;9.030;2023-12-07T14:56:31;7.10;55.30
3954;DHT22;1991;48.682;9.030;2023-12-07T14:58:59;6.80;56.10
3954;DHT22;1991;48.682;9.030;2023-12-07T15:01:25;6.70;57.00
3954;DHT22;1991;48.682;9.030;2023-12-07T15:03:51;6.40;57.50
3954;DHT22;1991;48.682;9.030;2023-12-07T15:06:16;6.20;58.20
3954;DHT22;1991;48.682;9.030;2023-12-07T15:08:43;6.10;59.00
3954;DHT22;1991;48.682;9.030;2023-12-07T15:11:09;6.00;59.30
3954;DHT22;1991;48.682;9.030;2023-12-07T15:13:39;5.80;60.00
3954;DHT22;1991;48.682;9.030;2023-12-07T15:16:06;5.60;60.40
3954;DHT22;1991;48.682;9.030;2023-12-07T15:18:31;5.40;60.00
3954;DHT22;1991;48.682;9.030;2023-12-07T15:21:01;5.30;60.80
3954;DHT22;1991;48.682;9.030;2023-12-07T15:23:27;5.20;62.50
3954;DHT22;1991;48.682;9.030;2023-12-07T15:25:52;5.00;62.30
3954;DHT22;1991;48.682;9.030;2023-12-07T15:28:20;4.80;63.00
3954;DHT22;1991;48.682;9.030;2023-12-07T15:30:45;4.60;62.60
3954;DHT22;1991;48.682;9.030;2023-12-07T15:33:11;4.50;63.00
3954;DHT22;1991;48.682;9.030;2023-12-07T15:35:39;4.30;63.30
3954;DHT22;1991;48.682;9.030;2023-12-07T15:38:05;4.10;64.00
3954;DHT22;1991;48.682;9.030;2023-12-07T15:40:30;3.80;64.60
3954;DHT22;1991;48.682;9.030;2023-12-07T15:42:56;3.80;64.90
3954;DHT22;1991;48.682;9.030;2023-12-07T15:45:22;3.60;66.00
3954;DHT22;1991;48.682;9.030;2023-12-07T15:47:47;3.50;66.50
3954;DHT22;1991;48.682;9.030;2023-12-07T15:50:13;3.40;66.90
3954;DHT22;1991;48.682;9.030;2023-12-07T15:52:38;3.40;67.20
3954;DHT22;1991;48.682;9.030;2023-12-07T15:55:04;3.30;68.50
3954;DHT22;1991;48.682;9.030;2023-12-07T15:57:31;3.20;68.90
3954;DHT22;1991;48.682;9.030;2023-12-07T15:59:57;3.00;69.20
3954;DHT22;1991;48.682;9.030;2023-12-07T16:02:22;3.00;69.80
3954;DHT22;1991;48.682;9.030;2023-12-07T16:04:48;2.90;70.40
3954;DHT22;1991;48.682;9.030;2023-12-07T16:07:14;2.80;70.60
3954;DHT22;1991;48.682;9.030;2023-12-07T16:09:40;2.70;71.20
3954;DHT22;1991;48.682;9.030;2023-12-07T16:12:08;2.60;71.30